Time;durP1;ratioP1;P1;durP2;ratioP2;P2;SDS_P1;SDS_P2;PMS_P1;PMS_P2;Temp;Humidity;BMP_temperature;BMP_pressure;BME280_temperature;BME280_humidity;BME280_pressure;Samples;Min_cycle;Max_cycle;Signal;HPM_P1;HPM_P2
2022/09/21 00:01:22;;;;;;;3.40;3.10;;;;;;;11.62;81.87;98886.61;1609472;87;21053;-70
2022/09/21 00:03:58;;;;;;;3.80;3.50;;;;;;;11.62;81.93;98885.78;1615050;87;21273;-68
2022/09/21 00:06:27;;;;;;;3.70;3.40;;;;;;;11.65;82.08;98888.86;1604141;89;26890;-69
2022/09/21 00:08:54;;;;;;;4.22;2.92;;;;;;;11.68;82.03;98889.85;1607245;88;21531;-69
2022/09/21 00:11:25;;;;;;;4.37;3.98;;;;;;;11.72;82.02;98887.14;1609209;87;20907;-68
2022/09/21 00:14:03;;;;;;;5.12;4.25;;;;;;;11.77;81.95;98894.55;1609011;87;21065;-69
2022/09/21 00:16:30;;;;;;;4.53;4.22;;;;;;;11.81;82.00;98887.00;1613754;87;22892;-69
2022/09/21 00:18:57;;;;;;;6.22;4.67;;;;;;;11.88;82.03;98884.70;1626322;87;21072;-70
2022/09/21 00:21:23;;;;;;;5.12;4.70;;;;;;;11.93;81.95;98884.95;1610303;87;21050;-70
2022/09/21 00:23:50;;;;;;;4.40;4.00;;;;;;;11.97;82.01;98883.53;1608529;87;21464;-68
2022/09/21 00:26:19;;;;;;;5.17;4.67;;;;;;;12.02;82.03;98886.98;1610647;87;20998;-69
2022/09/21 00:28:45;;;;;;;5.70;5.20;;;;;;;12.05;82.14;98887.39;1613871;87;21321;-68
2022/09/21 00:31:16;;;;;;;6.40;5.83;;;;;;;12.08;82.08;98885.67;1614290;88;21045;-69
2022/09/21 00:33:43;;;;;;;6.10;5.60;;;;;;;12.11;82.04;98879.96;1606727;87;21551;-69
2022/09/21 00:36:12;;;;;;;6.85;6.28;;;;;;;12.11;82.04;98875.96;1607931;87;21052;-67
2022/09/21 00:38:40;;;;;;;6.05;5.65;;;;;;;12.14;82.12;98876.08;1612725;87;21027;-69
2022/09/21 00:41:07;;;;;;;6.40;5.90;;;;;;;12.14;82.11;98871.58;1608329;87;21189;-70
2022/09/21 00:43:48;;;;;;;6.17;5.67;;;;;;;12.15;82.04;98869.74;1572420;89;20979;-69
2022/09/21 00:46:23;;;;;;;6.15;5.65;;;;;;;12.14;82.04;98867.58;1573889;89;21095;-69
2022/09/21 00:48:49;;;;;;;6.17;5.67;;;;;;;12.16;82.08;98870.04;1578079;89;20990;-70
2022/09/21 00:51:15;;;;;;;5.75;5.25;;;;;;;12.15;81.99;98866.55;1597765;88;21564;-70
2022/09/21 00:53:42;;;;;;;5.75;5.25;;;;;;;12.16;82.01;98866.88;1580102;89;21175;-69
2022/09/21 00:56:09;;;;;;;5.62;5.12;;;;;;;12.18;82.04;98871.99;1578405;89;21072;-69
2022/09/21 00:58:45;;;;;;;5.85;5.20;;;;;;;12.17;81.99;98871.20;1579847;89;21138;-70
2022/09/21 01:01:15;;;;;;;;;;;;;;;12.16;81.89;98873.53;1571713;89;21065;-69
2022/09/21 01:03:42;;;;;;;5.65;5.15;;;;;;;12.16;81.80;98873.53;1577153;89;20454;-70
2022/09/21 01:06:08;;;;;;;6.22;5.25;;;;;;;12.14;81.75;98880.08;1580237;89;21144;-70
2022/09/21 01:08:36;;;;;;;5.60;5.10;;;;;;;12.11;81.81;98890.63;1609181;88;21010;-69
2022/09/21 01:11:34;;;;;;;5.17;4.60;;;;;;;12.10;81.91;98884.14;1611404;88;21447;-69
2022/09/21 01:14:10;;;;;;;4.35;3.95;;;;;;;12.14;81.81;98893.41;1565699;89;21103;-68
2022/09/21 01:17:09;;;;;;;5.10;4.60;;;;;;;12.15;81.87;98887.87;1567548;90;21594;-70
2022/09/21 01:20:07;;;;;;;6.25;4.80;;;;;;;12.15;81.87;98887.87;1574401;89;21820;-70
2022/09/21 01:23:13;;;;;;;4.78;4.37;;;;;;;12.19;81.92;98885.66;1550857;90;20998;-69
2022/09/21 01:26:08;;;;;;;4.53;4.12;;;;;;;12.20;81.80;98885.98;1579139;89;20965;-69
2022/09/21 01:28:52;;;;;;;8.00;5.25;;;;;;;12.18;81.79;98887.48;1578137;88;20986;-69
2022/09/21 01:31:23;;;;;;;5.53;4.83;;;;;;;12.16;81.77;98882.03;1566103;90;20967;-69
2022/09/21 01:33:56;;;;;;;4.92;4.53;;;;;;;12.16;81.87;98889.53;1573716;89;21274;-69
2022/09/21 01:36:26;;;;;;;4.67;4.33;;;;;;;12.18;81.93;98894.16;1567729;91;21018;-69
2022/09/21 01:38:57;;;;;;;4.75;4.37;;;;;;;12.17;81.88;98888.53;1577800;88;20955;-69
2022/09/21 01:41:25;;;;;;;6.08;5.58;;;;;;;12.18;81.82;98888.82;1568423;88;21043;-68
2022/09/21 01:44:08;;;;;;;5.53;5.03;;;;;;;12.18;81.76;98883.99;1575343;88;21063;-67
2022/09/21 01:46:35;;;;;;;5.33;4.92;;;;;;;12.14;81.68;98883.58;1595386;89;21173;-68
2022/09/21 01:49:15;;;;;;;5.53;5.03;;;;;;;12.12;81.76;98899.45;1579641;89;21646;-69
2022/09/21 01:51:57;;;;;;;5.50;5.00;;;;;;;12.12;81.81;98889.59;1602137;88;21074;-68
2022/09/21 01:54:28;;;;;;;5.75;5.25;;;;;;;12.11;81.87;98898.63;1576971;89;20994;-69
2022/09/21 01:57:01;;;;;;;5.53;5.03;;;;;;;12.12;81.96;98902.92;1593846;88;21511;-70
2022/09/21 01:59:50;;;;;;;5.00;4.60;;;;;;;12.15;82.02;98903.08;1590447;88;21258;-70
2022/09/21 02:02:43;;;;;;;5.45;5.05;;;;;;;12.19;81.94;98895.81;1580159;89;20985;-69
2022/09/21 02:05:09;;;;;;;4.97;4.45;;;;;;;12.22;81.87;98894.09;1591230;89;21100;-68
2022/09/21 02:07:36;;;;;;;5.15;4.22;;;;;;;12.20;81.76;98897.45;1608309;88;21106;-68
2022/09/21 02:10:03;;;;;;;4.60;4.20;;;;;;;12.22;81.78;98895.44;1577949;89;21662;-69
2022/09/21 02:12:31;;;;;;;4.20;3.90;;;;;;;12.21;81.72;98894.27;1582656;89;21260;-70
2022/09/21 02:14:58;;;;;;;4.70;4.35;;;;;;;12.22;81.75;98902.09;1574020;89;21035;-70
2022/09/21 02:17:45;;;;;;;4.25;3.40;;;;;;;12.25;81.82;98903.02;1590617;89;21582;-69
2022/09/21 02:20:32;;;;;;;3.25;2.95;;;;;;;12.28;81.80;98897.80;1578374;89;21142;-68
2022/09/21 02:23:12;;;;;;;3.17;2.90;;;;;;;12.29;81.69;98898.13;1606728;87;21026;-69
2022/09/21 02:26:00;;;;;;;3.00;2.80;;;;;;;12.31;81.61;98899.58;1591219;89;21309;-70
2022/09/21 02:28:49;;;;;;;5.53;3.22;;;;;;;12.32;81.54;98902.58;1610319;87;21078;-69
2022/09/21 02:31:47;;;;;;;2.42;2.22;;;;;;;12.33;81.41;98904.20;1585017;89;21035;-68
2022/09/21 02:34:44;;;;;;;2.77;2.35;;;;;;;12.33;81.28;98903.41;1584909;89;21911;-69
2022/09/21 02:37:30;;;;;;;2.55;2.35;;;;;;;12.32;81.33;98903.08;1606436;88;21066;-69
2022/09/21 02:40:10;;;;;;;2.37;2.17;;;;;;;12.33;81.33;98896.73;1579054;89;21065;-69
2022/09/21 02:42:40;;;;;;;2.42;2.22;;;;;;;12.34;81.32;98902.37;1595178;88;21016;-69
2022/09/21 02:45:12;;;;;;;2.10;2.00;;;;;;;12.35;81.23;98908.86;1593365;89;21018;-70
2022/09/21 02:47:47;;;;;;;2.25;2.05;;;;;;;12.35;81.13;98907.52;1596587;88;20979;-70
2022/09/21 02:50:24;;;;;;;2.22;2.00;;;;;;;12.33;81.05;98909.53;1597328;88;20996;-68
2022/09/21 02:52:51;;;;;;;2.08;1.90;;;;;;;12.32;81.02;98910.58;1595074;88;21183;-70
2022/09/21 02:55:19;;;;;;;2.00;1.80;;;;;;;12.33;81.00;98911.41;1600606;88;20975;-70
2022/09/21 02:57:46;;;;;;;1.57;1.47;;;;;;;12.31;80.98;98908.91;1593530;88;21009;-70
2022/09/21 03:00:14;;;;;;;13.40;2.00;;;;;;;12.30;80.99;98903.79;1595523;88;21980;-69
2022/09/21 03:02:44;;;;;;;2.17;1.92;;;;;;;12.30;81.02;98909.13;1597388;88;20960;-70
2022/09/21 03:05:12;;;;;;;2.47;1.67;;;;;;;12.30;81.07;98909.95;1598401;88;21527;-69
2022/09/21 03:07:38;;;;;;;3.85;1.92;;;;;;;12.31;81.06;98909.42;1596412;88;21017;-71
2022/09/21 03:10:08;;;;;;;2.35;1.80;;;;;;;12.33;81.06;98914.88;1599509;88;21032;-69
2022/09/21 03:12:34;;;;;;;2.47;2.20;;;;;;;12.34;81.07;98910.37;1601181;88;21087;-68
2022/09/21 03:15:01;;;;;;;2.20;2.00;;;;;;;12.33;81.11;98914.88;1595580;88;20980;-68
2022/09/21 03:17:27;;;;;;;2.27;1.82;;;;;;;12.36;81.22;98908.33;1596899;88;21407;-69
2022/09/21 03:19:54;;;;;;;4.90;4.47;;;;;;;12.39;81.22;98912.77;1595991;88;21012;-68
2022/09/21 03:22:23;;;;;;;2.77;2.58;;;;;;;12.43;81.08;98914.55;1604415;88;21594;-69
2022/09/21 03:24:50;;;;;;;4.70;4.30;;;;;;;12.43;80.97;98915.88;1592765;89;21016;-68
2022/09/21 03:27:19;;;;;;;3.40;3.10;;;;;;;12.46;80.90;98915.50;1595381;88;21732;-68
2022/09/21 03:29:45;;;;;;;2.47;2.27;;;;;;;12.48;80.97;98920.63;1597849;88;21265;-67
2022/09/21 03:32:13;;;;;;;3.40;2.00;;;;;;;12.49;80.94;98924.41;1593092;88;21631;-68
2022/09/21 03:34:40;;;;;;;2.27;2.05;;;;;;;12.51;80.84;98922.41;1590998;88;21105;-70
2022/09/21 03:37:08;;;;;;;2.00;1.85;;;;;;;12.53;80.88;98926.19;1594566;89;21018;-68
2022/09/21 03:39:35;;;;;;;2.45;2.25;;;;;;;12.54;80.91;98928.65;1611548;87;20951;-70
2022/09/21 03:42:04;;;;;;;1.98;1.82;;;;;;;12.57;81.00;98925.59;1595595;88;21310;-68
2022/09/21 03:44:30;;;;;;;2.27;2.08;;;;;;;12.62;80.82;98927.70;1599323;88;21604;-70
2022/09/21 03:46:57;;;;;;;2.98;1.85;;;;;;;12.62;80.66;98925.83;1598336;88;20943;-69
2022/09/21 03:49:23;;;;;;;2.33;1.90;;;;;;;12.65;80.55;98924.11;1593920;88;21078;-69
2022/09/21 03:51:50;;;;;;;2.37;2.08;;;;;;;12.65;80.32;98922.77;1600648;88;21444;-69
2022/09/21 03:54:16;;;;;;;2.85;2.15;;;;;;;12.67;80.35;98927.39;1601109;88;21188;-68
2022/09/21 03:56:43;;;;;;;1.92;1.80;;;;;;;12.69;80.36;98920.55;1603532;88;21067;-69
2022/09/21 03:59:10;;;;;;;5.67;1.70;;;;;;;12.71;80.26;98923.33;1598121;88;20958;-70
2022/09/21 04:01:37;;;;;;;2.58;2.15;;;;;;;12.74;80.15;98926.11;1603384;88;21100;-69
2022/09/21 04:04:04;;;;;;;2.33;2.22;;;;;;;12.74;80.06;98916.77;1607613;88;20979;-69
2022/09/21 04:06:31;;;;;;;1.75;1.65;;;;;;;12.74;80.11;98919.44;1596439;89;21187;-70
2022/09/21 04:08:59;;;;;;;2.50;1.82;;;;;;;12.73;80.14;98917.28;1596951;88;21109;-68
2022/09/21 04:11:26;;;;;;;2.22;1.90;;;;;;;12.74;79.96;98924.28;1602864;88;21016;-68
2022/09/21 04:13:56;;;;;;;2.02;1.92;;;;;;;12.74;79.96;98920.78;1597754;88;21126;-70
2022/09/21 04:16:24;;;;;;;1.70;1.60;;;;;;;12.75;79.95;98925.91;1601381;88;20967;-69
2022/09/21 04:18:51;;;;;;;1.60;1.50;;;;;;;12.75;79.93;98927.23;1602021;88;21278;-70
2022/09/21 04:21:18;;;;;;;2.27;1.70;;;;;;;12.77;79.86;98929.73;1596278;88;21039;-70
2022/09/21 04:23:45;;;;;;;2.27;2.00;;;;;;;12.77;79.90;98932.40;1583113;89;21549;-69
2022/09/21 04:26:23;;;;;;;2.25;1.92;;;;;;;12.78;79.99;98934.86;1576940;90;20953;-70
2022/09/21 04:28:51;;;;;;;1.80;1.70;;;;;;;12.80;79.94;98935.48;1601281;88;20971;-69
2022/09/21 04:31:18;;;;;;;1.95;1.77;;;;;;;12.84;79.86;98929.24;1598735;88;21221;-71
2022/09/21 04:33:50;;;;;;;2.08;1.90;;;;;;;12.85;79.82;98932.23;1596584;88;20998;-68
2022/09/21 04:36:18;;;;;;;1.98;1.80;;;;;;;12.85;79.76;98928.23;1604495;88;21642;-70
2022/09/21 04:38:44;;;;;;;2.15;1.95;;;;;;;12.87;79.75;98930.19;1597276;88;21010;-68
2022/09/21 04:41:11;;;;;;;3.67;1.80;;;;;;;12.87;79.77;98932.35;1596510;89;21066;-70
2022/09/21 04:43:43;;;;;;;1.70;1.60;;;;;;;12.89;79.81;98933.48;1602401;87;21314;-68
2022/09/21 04:46:12;;;;;;;1.70;1.60;;;;;;;12.90;79.77;98929.80;1601540;88;20994;-69
2022/09/21 04:48:39;;;;;;;2.85;1.95;;;;;;;12.93;79.76;98934.75;1621426;86;21098;-70
2022/09/21 04:51:06;;;;;;;1.92;1.67;;;;;;;12.95;79.81;98934.03;1614709;88;21010;-70
2022/09/21 04:53:35;;;;;;;2.22;2.12;;;;;;;12.97;79.86;98936.81;1644658;86;21030;-71
2022/09/21 04:56:03;;;;;;;2.22;2.00;;;;;;;13.00;79.75;98942.27;1604137;88;22380;-69
2022/09/21 04:58:31;;;;;;;2.27;1.90;;;;;;;13.01;79.60;98943.89;1599753;88;20998;-70
2022/09/21 05:00:57;;;;;;;2.40;1.50;;;;;;;13.04;79.59;98942.17;1614597;87;21071;-68
2022/09/21 05:03:24;;;;;;;1.82;1.72;;;;;;;13.09;79.54;98946.97;1646207;86;21512;-69
2022/09/21 05:05:54;;;;;;;1.70;1.60;;;;;;;13.11;79.43;98942.25;1597952;88;21095;-68
2022/09/21 05:10:01;;;;;;;2.67;1.82;;;;;;;13.12;79.22;98944.70;1597765;87;21248;-70
2022/09/21 05:10:51;;;;;;;2.62;1.80;;;;;;;13.12;79.16;98948.70;1628278;86;20998;-68
2022/09/21 05:13:17;;;;;;;2.55;2.00;;;;;;;13.15;79.12;98954.99;1560393;89;21527;-69
2022/09/21 05:15:43;;;;;;;2.00;1.90;;;;;;;13.16;79.04;98948.64;1640303;86;21082;-69
2022/09/21 05:18:10;;;;;;;2.30;2.10;;;;;;;13.18;79.18;98941.25;1629041;87;21051;-70
2022/09/21 05:20:37;;;;;;;1.87;1.70;;;;;;;13.22;79.25;98950.48;1607014;88;21177;-71
2022/09/21 05:23:06;;;;;;;1.92;1.72;;;;;;;13.26;79.07;98947.75;1615199;88;21014;-67
2022/09/21 05:25:33;;;;;;;3.52;1.90;;;;;;;13.29;78.83;98947.86;1629563;86;21082;-68
2022/09/21 05:28:01;;;;;;;4.10;1.95;;;;;;;13.29;78.81;98947.35;1605048;87;21164;-68
2022/09/21 05:30:30;;;;;;;2.75;2.27;;;;;;;13.29;78.67;98944.69;1637285;87;21089;-68
2022/09/21 05:33:00;;;;;;;1.87;1.77;;;;;;;13.29;78.45;98944.69;1627253;87;21280;-68
2022/09/21 05:35:45;;;;;;;2.02;1.80;;;;;;;13.32;78.42;98945.59;1608033;88;21027;-69
2022/09/21 05:38:18;;;;;;;2.00;1.90;;;;;;;13.35;78.35;98951.05;1575333;87;21042;-69
2022/09/21 05:40:51;;;;;;;2.80;2.17;;;;;;;13.38;78.45;98950.65;1607839;87;21106;-71
2022/09/21 05:43:15;;;;;;;2.40;2.20;;;;;;;13.41;78.29;98944.91;1598511;88;21054;-70
2022/09/21 05:45:45;;;;;;;2.05;1.92;;;;;;;13.43;78.06;98950.36;1591506;88;21358;-69
2022/09/21 05:48:25;;;;;;;4.20;2.00;;;;;;;13.42;77.99;98945.23;1595867;89;21618;-69
2022/09/21 05:51:09;;;;;;;3.33;2.37;;;;;;;13.44;77.93;98948.52;1596216;88;21089;-70
2022/09/21 05:53:56;;;;;;;2.60;2.33;;;;;;;13.45;77.87;98951.52;1602249;88;21050;-71
2022/09/21 05:57:00;;;;;;;1.55;1.42;;;;;;;13.45;77.91;98953.65;1596405;88;21165;-71
2022/09/21 05:59:50;;;;;;;2.30;2.10;;;;;;;13.48;77.90;98946.57;1595818;88;21195;-70
2022/09/21 06:02:44;;;;;;;4.35;1.90;;;;;;;13.51;77.90;98952.86;1590020;89;20951;-71
2022/09/21 06:05:11;;;;;;;1.75;1.65;;;;;;;13.55;77.89;98951.95;1596029;89;20904;-69
2022/09/21 06:07:38;;;;;;;3.50;1.82;;;;;;;13.56;77.64;98955.74;1595643;88;21031;-71
2022/09/21 06:10:12;;;;;;;1.85;1.60;;;;;;;13.62;77.44;98958.13;1612267;87;20960;-69
2022/09/21 06:12:40;;;;;;;2.27;2.05;;;;;;;13.65;77.08;98954.22;1597963;88;21372;-71
2022/09/21 06:15:10;;;;;;;2.40;2.10;;;;;;;13.67;76.96;98957.00;1596032;88;21006;-71
2022/09/21 06:17:37;;;;;;;2.02;1.90;;;;;;;13.71;76.84;98956.92;1577524;89;21022;-69
2022/09/21 06:20:06;;;;;;;2.60;1.90;;;;;;;13.69;76.75;98960.83;1598069;88;21508;-70
2022/09/21 06:22:33;;;;;;;2.25;2.10;;;;;;;13.66;76.74;98962.03;1596179;88;21093;-71
2022/09/21 06:25:00;;;;;;;3.75;1.95;;;;;;;13.65;76.74;98968.92;1599678;88;21291;-70
2022/09/21 06:27:29;;;;;;;3.02;2.83;;;;;;;13.65;76.77;98962.24;1595931;89;21039;-68
2022/09/21 06:29:56;;;;;;;4.47;3.20;;;;;;;13.65;76.78;98964.91;1594050;88;21536;-71
2022/09/21 06:32:23;;;;;;;3.50;2.50;;;;;;;13.63;76.80;98964.59;1616302;87;21097;-71
2022/09/21 06:34:50;;;;;;;3.98;2.55;;;;;;;13.65;76.86;98964.91;1593867;88;20976;-70
2022/09/21 06:37:16;;;;;;;2.77;2.37;;;;;;;13.68;76.88;98961.84;1598107;89;22088;-70
2022/09/21 06:39:43;;;;;;;2.47;2.27;;;;;;;13.73;76.90;98960.72;1596208;89;20998;-70
2022/09/21 06:42:09;;;;;;;2.25;2.00;;;;;;;13.77;76.92;98971.30;1597892;88;21005;-68
2022/09/21 06:44:36;;;;;;;3.02;2.58;;;;;;;13.84;76.88;98974.84;1598260;88;21018;-68
2022/09/21 06:47:04;;;;;;;2.60;2.10;;;;;;;13.89;76.86;98973.71;1591923;89;20970;-69
2022/09/21 06:49:31;;;;;;;2.58;1.95;;;;;;;13.95;76.78;98980.90;1596108;89;21281;-69
2022/09/21 06:51:57;;;;;;;2.83;2.00;;;;;;;14.03;76.74;98986.05;1588528;89;20955;-69
2022/09/21 06:54:24;;;;;;;2.50;2.30;;;;;;;14.10;76.59;98979.68;1596241;89;21567;-69
2022/09/21 06:56:51;;;;;;;2.50;2.25;;;;;;;14.18;76.14;98978.69;1599010;88;20947;-69
2022/09/21 06:59:19;;;;;;;2.08;1.80;;;;;;;14.19;75.85;98978.98;1603452;88;21019;-68
2022/09/21 07:01:45;;;;;;;2.90;2.70;;;;;;;14.23;75.75;98978.89;1596536;88;22096;-69
2022/09/21 07:04:12;;;;;;;2.90;2.67;;;;;;;14.30;75.51;98978.37;1600624;88;20952;-69
2022/09/21 07:06:38;;;;;;;3.17;2.87;;;;;;;14.33;75.33;98981.17;1596273;88;21103;-69
2022/09/21 07:09:04;;;;;;;3.00;2.70;;;;;;;14.36;75.20;98974.08;1595356;88;21051;-68
2022/09/21 07:11:32;;;;;;;4.00;3.17;;;;;;;14.40;74.99;98977.47;1596352;89;21057;-70
2022/09/21 07:13:58;;;;;;;3.80;3.40;;;;;;;14.43;74.79;98982.92;1596552;89;21184;-70
2022/09/21 07:16:26;;;;;;;3.33;3.02;;;;;;;14.47;74.79;98976.14;1597181;88;20951;-71
2022/09/21 07:18:53;;;;;;;3.45;2.98;;;;;;;14.52;74.68;98986.51;1596448;89;21006;-69
2022/09/21 07:21:21;;;;;;;3.12;2.90;;;;;;;14.52;74.44;98988.39;1596297;89;20951;-69
2022/09/21 07:23:47;;;;;;;3.25;3.00;;;;;;;14.52;74.30;98991.06;1596347;89;21552;-69
2022/09/21 07:26:14;;;;;;;3.40;3.10;;;;;;;14.53;74.32;98995.37;1597322;88;21187;-70
2022/09/21 07:28:41;;;;;;;4.17;2.95;;;;;;;14.51;74.23;98992.91;1596253;89;21138;-70
2022/09/21 07:31:10;;;;;;;3.30;3.00;;;;;;;14.48;74.19;98995.99;1596462;89;21158;-70
2022/09/21 07:33:36;;;;;;;3.33;3.02;;;;;;;14.46;74.11;99002.59;1596577;89;21451;-68
2022/09/21 07:36:09;;;;;;;3.60;3.30;;;;;;;14.44;74.13;98997.45;1595439;88;21006;-70
2022/09/21 07:38:35;;;;;;;3.65;3.33;;;;;;;14.43;74.08;99001.66;1601283;88;22224;-69
2022/09/21 07:41:02;;;;;;;3.72;3.35;;;;;;;14.41;74.11;99009.07;1601751;88;21057;-70
2022/09/21 07:43:29;;;;;;;3.10;2.80;;;;;;;14.41;74.22;99008.56;1596434;89;21050;-69
2022/09/21 07:45:55;;;;;;;2.70;2.50;;;;;;;14.39;74.31;99009.80;1600012;89;21192;-69
2022/09/21 07:48:22;;;;;;;3.47;3.17;;;;;;;14.42;74.21;99010.70;1595905;88;20961;-69
2022/09/21 07:50:48;;;;;;;2.62;2.42;;;;;;;14.43;74.17;99007.84;1597263;88;21314;-70
2022/09/21 07:53:16;;;;;;;3.30;2.87;;;;;;;14.46;74.17;99006.09;1597257;89;21032;-69
2022/09/21 07:55:43;;;;;;;3.20;2.67;;;;;;;14.50;73.99;99004.63;1596377;89;21138;-69
2022/09/21 08:00:55;;;;;;;2.67;2.47;;;;;;;14.54;73.86;99008.56;1599704;88;21522;-68
2022/09/21 08:03:21;;;;;;;3.00;2.45;;;;;;;14.58;73.63;99007.11;1596946;89;21166;-70
2022/09/21 08:05:50;;;;;;;2.83;2.47;;;;;;;14.62;73.61;99004.84;1596022;89;21016;-69
2022/09/21 08:08:17;;;;;;;2.80;2.60;;;;;;;14.70;73.55;99008.66;1598407;88;21017;-69
2022/09/21 08:10:44;;;;;;;3.33;2.90;;;;;;;14.78;73.37;99005.22;1599243;88;21131;-68
2022/09/21 08:13:10;;;;;;;3.83;2.42;;;;;;;14.89;73.24;99006.98;1606979;88;21044;-69
2022/09/21 08:15:37;;;;;;;4.00;2.30;;;;;;;14.97;73.04;99008.89;1601238;88;21271;-69
2022/09/21 08:18:06;;;;;;;2.35;2.17;;;;;;;15.04;72.87;99007.05;1603568;88;21072;-69
2022/09/21 08:20:33;;;;;;;4.22;2.52;;;;;;;15.09;72.70;99009.92;1596136;89;21038;-69
2022/09/21 08:23:01;;;;;;;2.05;1.85;;;;;;;15.12;72.55;99011.35;1596212;89;21147;-69
2022/09/21 08:25:29;;;;;;;1.95;1.70;;;;;;;15.14;72.50;99007.94;1600201;88;21481;-70
2022/09/21 08:27:59;;;;;;;2.52;1.37;;;;;;;15.14;72.38;99010.62;1598864;88;21125;-71
2022/09/21 08:30:27;;;;;;;1.77;1.67;;;;;;;15.12;72.12;99014.03;1603111;88;21022;-70
2022/09/21 08:32:54;;;;;;;2.65;1.47;;;;;;;15.06;71.95;99010.84;1603819;88;21577;-70
2022/09/21 08:35:20;;;;;;;2.42;2.22;;;;;;;15.01;72.00;99010.66;1596199;89;21007;-69
2022/09/21 08:37:49;;;;;;;3.83;2.10;;;;;;;14.99;72.02;99015.41;1596180;89;21030;-71
2022/09/21 08:40:16;;;;;;;2.42;2.05;;;;;;;14.99;72.10;99018.08;1599081;88;21302;-69
2022/09/21 08:42:51;;;;;;;2.40;2.20;;;;;;;15.01;72.14;99015.50;1595978;89;21082;-69
2022/09/21 08:45:19;;;;;;;2.47;2.05;;;;;;;15.02;72.24;99017.64;1603723;88;21053;-68
2022/09/21 08:47:49;;;;;;;2.33;2.10;;;;;;;15.03;72.30;99021.97;1599559;88;21097;-69
2022/09/21 08:50:27;;;;;;;2.50;2.30;;;;;;;15.07;72.34;99021.34;1593077;89;21552;-69
2022/09/21 08:53:09;;;;;;;2.62;2.50;;;;;;;15.11;72.35;99023.09;1616458;88;22234;-69
2022/09/21 08:55:35;;;;;;;2.62;2.42;;;;;;;15.12;72.40;99024.75;1591534;89;21576;-70
2022/09/21 08:58:02;;;;;;;4.22;3.92;;;;;;;15.17;72.51;99024.94;1636825;86;21537;-70
2022/09/21 09:00:33;;;;;;;4.55;3.30;;;;;;;15.22;72.47;99027.80;1597885;88;21048;-70
2022/09/21 09:03:26;;;;;;;5.00;4.60;;;;;;;15.25;72.37;99032.75;1598587;88;21111;-70
2022/09/21 09:06:34;;;;;;;5.25;4.35;;;;;;;15.21;72.32;99028.83;1596610;89;21195;-70
2022/09/21 09:09:32;;;;;;;4.37;3.98;;;;;;;15.18;72.37;99027.91;1620385;87;21022;-69
2022/09/21 09:12:45;;;;;;;4.75;3.80;;;;;;;15.15;72.33;99027.81;1607616;87;21098;-68
2022/09/21 09:15:48;;;;;;;3.98;3.67;;;;;;;15.15;72.40;99036.36;1597638;89;20915;-71
2022/09/21 09:18:37;;;;;;;4.12;3.83;;;;;;;15.15;72.49;99037.70;1598500;89;21041;-71
2022/09/21 09:21:15;;;;;;;4.33;3.92;;;;;;;15.11;72.49;99036.48;1600218;88;21117;-64
2022/09/21 09:23:55;;;;;;;5.00;4.50;;;;;;;15.11;72.60;99040.50;1622529;86;21035;-65
2022/09/21 09:26:45;;;;;;;5.28;4.72;;;;;;;15.15;73.00;99035.02;1614961;88;20971;-69
2022/09/21 09:29:49;;;;;;;4.83;4.42;;;;;;;15.16;73.45;99033.48;1612786;88;21006;-69
2022/09/21 09:32:16;;;;;;;4.50;4.10;;;;;;;15.22;73.53;99034.50;1593849;89;21026;-70
2022/09/21 09:35:13;;;;;;;4.70;4.30;;;;;;;15.25;73.31;99038.11;1595753;88;21892;-70
2022/09/21 09:37:40;;;;;;;4.75;4.35;;;;;;;15.27;73.04;99038.72;1558153;89;20975;-69
2022/09/21 09:40:07;;;;;;;4.55;4.17;;;;;;;15.26;72.92;99040.56;1602475;89;20940;-70
2022/09/21 09:42:43;;;;;;;5.20;4.70;;;;;;;15.27;72.81;99039.55;1607600;87;21142;-70
2022/09/21 09:45:49;;;;;;;5.53;5.12;;;;;;;15.28;72.80;99037.16;1603316;87;20994;-70
2022/09/21 09:48:36;;;;;;;5.12;4.72;;;;;;;15.30;72.58;99036.41;1620168;87;21205;-68
2022/09/21 09:51:02;;;;;;;5.60;5.05;;;;;;;15.33;72.55;99044.04;1601636;88;21108;-70
2022/09/21 09:53:29;;;;;;;4.45;4.05;;;;;;;15.37;72.49;99037.75;1602450;88;20953;-70
2022/09/21 09:55:56;;;;;;;7.05;4.70;;;;;;;15.42;72.25;99036.09;1574056;90;21047;-69
2022/09/21 09:58:44;;;;;;;5.30;4.87;;;;;;;15.42;72.12;99040.11;1596322;89;21611;-70
2022/09/21 10:01:38;;;;;;;6.58;5.35;;;;;;;15.52;72.05;99042.88;1584777;88;21205;-71
2022/09/21 10:04:10;;;;;;;6.50;4.60;;;;;;;15.65;72.02;99034.27;1573351;89;21002;-69
2022/09/21 10:06:37;;;;;;;4.47;4.08;;;;;;;15.85;71.57;99028.27;1582227;89;21062;-71
2022/09/21 10:09:30;;;;;;;4.78;4.33;;;;;;;15.99;71.18;99027.69;1595184;89;20998;-71
2022/09/21 10:15:09;;;;;;;3.42;2.90;;;;;;;16.42;69.99;99020.59;1617133;87;21268;-69
2022/09/21 10:17:36;;;;;;;2.60;2.40;;;;;;;16.82;68.78;99019.73;1620674;87;21094;-70
2022/09/21 10:20:06;;;;;;;3.30;2.85;;;;;;;17.10;67.66;99016.03;1629855;87;20950;-70
2022/09/21 10:22:33;;;;;;;3.67;3.37;;;;;;;17.26;66.68;99010.07;1648852;85;20971;-70
2022/09/21 10:25:04;;;;;;;4.40;3.10;;;;;;;17.31;66.16;99013.45;1646671;85;20924;-72
2022/09/21 10:27:34;;;;;;;3.00;2.80;;;;;;;17.33;65.80;99007.32;1639758;85;21278;-70
2022/09/21 10:30:01;;;;;;;3.02;2.80;;;;;;;17.29;65.53;99000.22;1646461;85;21038;-70
2022/09/21 10:32:28;;;;;;;3.20;2.87;;;;;;;17.28;65.37;99007.97;1646395;85;20968;-71
2022/09/21 10:35:10;;;;;;;3.33;3.02;;;;;;;17.33;65.27;99003.80;1643927;85;20999;-70
2022/09/21 10:37:43;;;;;;;3.05;2.80;;;;;;;17.41;65.16;99001.64;1627985;86;20980;-73
2022/09/21 10:40:23;;;;;;;3.52;3.22;;;;;;;17.51;64.97;99000.59;1635948;85;21865;-68
2022/09/21 10:42:58;;;;;;;2.47;2.27;;;;;;;17.53;64.47;98997.69;1620698;87;21529;-72
2022/09/21 10:45:28;;;;;;;2.75;2.45;;;;;;;17.49;64.25;99000.00;1641668;85;21431;-72
2022/09/21 10:48:11;;;;;;;3.30;2.27;;;;;;;17.40;64.06;99004.54;1642798;85;20999;-71
2022/09/21 10:50:44;;;;;;;2.60;2.40;;;;;;;17.22;64.04;99007.55;1610069;87;21020;-70
2022/09/21 10:53:31;;;;;;;2.70;2.50;;;;;;;17.03;64.23;99006.41;1626348;85;21279;-70
2022/09/21 10:56:17;;;;;;;2.87;2.58;;;;;;;16.89;64.75;99011.63;1609500;87;21510;-70
2022/09/21 10:59:12;;;;;;;3.12;2.80;;;;;;;16.83;65.17;99009.81;1636239;86;23556;-71
2022/09/21 11:01:45;;;;;;;2.75;2.40;;;;;;;16.84;65.71;99004.21;1608081;88;20991;-70
2022/09/21 11:04:32;;;;;;;2.47;2.27;;;;;;;17.01;65.86;99007.98;1643794;85;21492;-70
2022/09/21 11:07:07;;;;;;;2.70;2.50;;;;;;;17.15;65.62;98996.58;1648770;85;21193;-70
2022/09/21 11:09:40;;;;;;;2.40;2.20;;;;;;;17.30;65.40;98995.67;1643010;85;22404;-70
2022/09/21 11:12:25;;;;;;;3.08;2.60;;;;;;;17.31;65.08;99000.02;1642330;85;21499;-70
2022/09/21 11:15:13;;;;;;;2.12;1.12;;;;;;;17.25;64.83;99000.90;1656798;85;20962;-70
2022/09/21 11:17:55;;;;;;;0.90;0.90;;;;;;;17.06;63.82;99004.10;1642653;85;20971;-70
2022/09/21 11:20:35;;;;;;;1.17;0.72;;;;;;;16.86;63.01;99004.01;1616869;86;21163;-72
2022/09/21 11:23:42;;;;;;;4.08;1.00;;;;;;;16.66;62.62;99007.69;1616852;86;21354;-72
2022/09/21 11:26:26;;;;;;;1.47;0.95;;;;;;;16.47;62.96;99009.19;1639124;86;21515;-71
2022/09/21 11:29:11;;;;;;;1.72;1.10;;;;;;;16.14;63.87;99013.45;1638785;87;21025;-72
2022/09/21 11:32:07;;;;;;;1.32;1.20;;;;;;;15.91;64.98;99014.02;1610392;87;21099;-71
2022/09/21 11:35:10;;;;;;;1.20;1.10;;;;;;;15.75;66.07;99011.83;1606245;87;21194;-72
2022/09/21 11:38:09;;;;;;;2.98;2.00;;;;;;;15.58;66.98;99017.39;1606847;87;21552;-71
2022/09/21 11:41:08;;;;;;;1.52;1.42;;;;;;;15.39;67.88;99019.08;1554474;91;21095;-71
2022/09/21 11:44:19;;;;;;;1.98;1.70;;;;;;;15.27;68.79;99019.95;1623955;88;21070;-70
2022/09/21 11:47:28;;;;;;;1.90;1.80;;;;;;;15.23;69.54;99020.05;1639038;86;21041;-72
2022/09/21 11:50:21;;;;;;;2.10;2.00;;;;;;;15.21;69.99;99023.47;1632979;86;21776;-71
2022/09/21 11:53:19;;;;;;;1.65;1.55;;;;;;;15.19;70.63;99022.86;1626244;86;20919;-71
2022/09/21 11:56:15;;;;;;;1.50;1.32;;;;;;;15.19;70.69;99018.84;1636825;86;21097;-71
2022/09/21 11:58:50;;;;;;;1.65;0.80;;;;;;;15.22;69.91;99015.75;1634103;86;20993;-71
2022/09/21 12:01:37;;;;;;;0.60;0.60;;;;;;;15.27;68.74;99024.80;1634476;86;20959;-71
2022/09/21 12:04:23;;;;;;;0.82;0.60;;;;;;;15.26;67.82;99020.47;1640719;86;21151;-70
2022/09/21 12:07:19;;;;;;;1.17;0.90;;;;;;;15.24;67.17;99017.19;1598927;86;21512;-70
2022/09/21 12:09:51;;;;;;;0.95;0.85;;;;;;;15.20;67.08;99020.50;1640930;86;21556;-70
2022/09/21 12:12:53;;;;;;;1.17;1.10;;;;;;;15.15;67.62;99017.09;1644105;86;20946;-71